createdAt,value
2018-07-06T03:34:53.131Z,8.10
2018-07-06T03:37:37.018Z,8.93
2018-07-06T03:40:20.780Z,9.53
2018-07-06T03:43:04.574Z,7.47
2018-07-06T03:45:48.433Z,8.30
2018-07-06T03:48:32.133Z,7.73
2018-07-06T03:51:16.288Z,7.70
2018-07-06T03:54:00.137Z,8.07
2018-07-06T03:56:44.121Z,7.93
2018-07-06T03:59:27.993Z,7.57
2018-07-06T04:02:11.818Z,8.07
2018-07-06T04:04:55.800Z,6.40
2018-07-06T04:07:39.435Z,6.00
2018-07-06T04:10:23.222Z,8.83
2018-07-06T04:13:07.080Z,5.90
2018-07-06T04:15:50.785Z,5.67
2018-07-06T04:18:34.752Z,6.87
2018-07-06T04:21:18.653Z,5.80
2018-07-06T04:24:02.330Z,6.73
2018-07-06T04:26:46.074Z,6.27
2018-07-06T04:29:30.062Z,14.93
2018-07-06T04:32:13.702Z,7.30
2018-07-06T04:34:57.453Z,8.03
2018-07-06T04:37:41.342Z,6.97
2018-07-06T04:40:25.111Z,6.70
2018-07-06T04:43:08.893Z,6.33
2018-07-06T04:45:52.693Z,6.27
2018-07-06T04:48:36.780Z,6.50
2018-07-06T04:51:20.429Z,7.57
2018-07-06T04:54:04.137Z,5.47
2018-07-06T04:56:47.960Z,6.27
2018-07-06T04:59:31.842Z,7.10
2018-07-06T05:02:15.718Z,7.65
2018-07-06T05:04:59.527Z,7.33
2018-07-06T05:07:43.359Z,5.92
2018-07-06T05:10:26.976Z,9.95
2018-07-06T05:13:10.580Z,6.20
2018-07-06T05:15:54.484Z,9.88
2018-07-06T05:18:38.354Z,6.90
2018-07-06T05:21:22.147Z,5.40
2018-07-06T05:24:06.253Z,7.20
2018-07-06T05:26:50.094Z,5.55
2018-07-06T05:29:33.770Z,6.58
2018-07-06T05:32:17.611Z,6.30
2018-07-06T05:35:01.415Z,8.08
2018-07-06T05:37:45.389Z,6.28
2018-07-06T05:40:29.195Z,5.97
2018-07-06T05:43:13.017Z,9.18
2018-07-06T05:45:56.740Z,7.62
2018-07-06T05:48:40.550Z,10.15
2018-07-06T05:51:24.414Z,7.78
2018-07-06T05:54:08.480Z,7.20
2018-07-06T05:56:52.356Z,10.28
2018-07-06T05:59:36.093Z,9.35
2018-07-06T06:02:20.222Z,7.45
2018-07-06T06:05:04.121Z,7.05
2018-07-06T06:07:35.510Z,8.08
2018-07-06T06:10:08.141Z,8.00
2018-07-06T06:12:40.545Z,8.38
2018-07-06T06:15:13.246Z,12.10
2018-07-06T06:17:45.892Z,13.17
2018-07-06T06:20:18.281Z,10.33
2018-07-06T06:22:50.721Z,12.53
2018-07-06T06:25:23.121Z,10.97
2018-07-06T06:27:55.812Z,12.53
2018-07-06T06:30:28.225Z,12.87
2018-07-06T06:33:01.049Z,15.13
2018-07-06T06:35:33.897Z,13.90
2018-07-06T06:38:06.312Z,15.37
2018-07-06T06:40:39.153Z,16.13
2018-07-06T06:43:11.556Z,21.60
2018-07-06T06:45:44.235Z,33.67
2018-07-06T06:48:16.640Z,45.47
2018-07-06T06:50:49.062Z,51.80
2018-07-06T06:53:21.413Z,58.07
2018-07-06T06:55:54.163Z,64.10
2018-07-06T06:58:26.793Z,59.83
2018-07-06T07:00:59.492Z,76.13
2018-07-06T07:03:32.487Z,67.83
2018-07-06T07:06:04.693Z,56.47
2018-07-06T07:08:37.175Z,55.93
2018-07-06T07:11:09.591Z,44.37
2018-07-06T07:13:41.993Z,49.60
2018-07-06T07:16:14.631Z,56.13
2018-07-06T07:18:47.569Z,57.27
2018-07-06T07:21:19.948Z,53.57
2018-07-06T07:23:52.333Z,51.80
2018-07-06T07:26:25.045Z,54.77
2018-07-06T07:28:57.425Z,44.10
2018-07-06T07:31:29.807Z,51.40
2018-07-06T07:34:02.217Z,47.33
2018-07-06T07:39:02.005Z,45.43
2018-07-06T07:41:34.312Z,49.53
2018-07-06T07:44:06.716Z,48.00
2018-07-06T07:46:39.167Z,57.13
2018-07-06T07:49:11.493Z,42.33
2018-07-06T07:51:55.256Z,44.47
2018-07-06T07:54:27.697Z,46.40
2018-07-06T07:57:00.116Z,43.50
2018-07-06T07:59:32.589Z,41.43
2018-07-06T08:02:05.458Z,40.67
2018-07-06T08:04:38.333Z,41.53
2018-07-06T08:07:10.709Z,44.23
2018-07-06T08:09:43.121Z,49.43
2018-07-06T08:12:15.828Z,47.00
2018-07-06T08:14:48.505Z,46.97
2018-07-06T08:17:20.877Z,41.40
2018-07-06T08:19:53.263Z,41.87
2018-07-06T08:22:25.913Z,39.77
2018-07-06T08:24:58.330Z,44.07
2018-07-06T08:27:31.006Z,41.77
2018-07-06T08:30:03.408Z,37.33
2018-07-06T08:32:36.057Z,43.27
2018-07-06T08:35:19.796Z,43.27
2018-07-06T08:37:58.113Z,39.23
2018-07-06T08:40:30.513Z,38.90
2018-07-06T08:43:02.897Z,35.93
2018-07-06T08:45:35.553Z,38.27
2018-07-06T08:48:07.961Z,36.87
2018-07-06T08:50:40.691Z,40.90
2018-07-06T08:53:13.305Z,96.33
2018-07-06T08:55:46.013Z,41.67
2018-07-06T08:58:18.420Z,41.33
2018-07-06T09:00:51.089Z,46.83
2018-07-06T09:03:23.870Z,38.57
2018-07-06T09:05:56.549Z,38.00
2018-07-06T09:08:29.017Z,38.30
2018-07-06T09:11:01.910Z,27.97
2018-07-06T09:13:34.733Z,61.00
2018-07-06T09:16:07.441Z,42.20
2018-07-06T09:18:40.274Z,53.73
2018-07-06T09:21:13.033Z,55.83
2018-07-06T09:23:45.912Z,29.77
2018-07-06T09:26:18.685Z,32.20
2018-07-06T09:28:51.431Z,26.87
2018-07-06T09:31:24.189Z,29.77
2018-07-06T09:33:56.974Z,27.43
2018-07-06T09:36:29.378Z,112.77
2018-07-06T09:39:02.089Z,33.77
2018-07-06T09:41:34.819Z,32.07
2018-07-06T09:44:07.257Z,36.40
2018-07-06T09:46:39.990Z,25.40
2018-07-06T09:49:12.649Z,25.20
2018-07-06T09:51:45.074Z,19.73
2018-07-06T09:54:17.811Z,19.92
2018-07-06T09:56:50.205Z,18.20
2018-07-06T09:59:22.699Z,28.27
2018-07-06T10:01:55.097Z,25.27
2018-07-06T10:04:27.564Z,29.07
2018-07-06T10:06:59.866Z,18.40
2018-07-06T10:09:32.254Z,20.20
2018-07-06T10:12:04.724Z,16.80
2018-07-06T10:14:37.117Z,19.62
2018-07-06T10:17:09.781Z,20.82
2018-07-06T10:19:42.248Z,21.20
2018-07-06T10:22:14.589Z,27.52
2018-07-06T10:24:47.011Z,16.40
2018-07-06T10:27:20.287Z,19.10
2018-07-06T10:29:59.593Z,17.50
2018-07-06T10:32:31.974Z,13.75
2018-07-06T10:35:04.441Z,23.77
2018-07-06T10:37:36.981Z,32.15
2018-07-06T10:40:09.513Z,20.30
2018-07-06T10:42:42.441Z,20.92
2018-07-06T10:45:15.061Z,26.20
2018-07-06T10:47:47.657Z,18.92
2018-07-06T10:50:20.058Z,16.12
2018-07-06T10:52:52.445Z,14.25
2018-07-06T10:55:24.833Z,19.15
2018-07-06T10:57:57.223Z,57.03
2018-07-06T11:00:29.659Z,43.65
2018-07-06T11:03:02.334Z,17.98
2018-07-06T11:05:34.753Z,19.62
2018-07-06T11:08:07.208Z,17.95
2018-07-06T11:10:39.629Z,21.97
2018-07-06T11:13:12.254Z,16.48
2018-07-06T11:15:45.036Z,17.82
2018-07-06T11:18:17.420Z,12.90
2018-07-06T11:20:49.810Z,17.85
2018-07-06T11:23:22.472Z,15.72
2018-07-06T11:25:54.861Z,19.52
2018-07-06T11:28:27.647Z,16.77
2018-07-06T11:31:00.040Z,14.80
2018-07-06T11:33:32.423Z,15.95
2018-07-06T11:36:05.180Z,13.78
2018-07-06T11:38:37.549Z,20.70
2018-07-06T11:41:10.249Z,16.80
2018-07-06T11:43:42.945Z,18.07
2018-07-06T11:46:15.353Z,17.00
2018-07-06T11:48:47.737Z,19.80
2018-07-06T11:51:20.125Z,18.07
2018-07-06T11:53:52.738Z,11.48
2018-07-06T11:56:25.627Z,14.43
2018-07-06T11:58:58.000Z,17.45
2018-07-06T12:01:30.618Z,12.58
2018-07-06T12:04:03.087Z,14.70
2018-07-06T12:06:35.400Z,14.40
2018-07-06T12:09:08.048Z,10.78
2018-07-06T12:11:40.662Z,17.23
2018-07-06T12:14:13.553Z,15.70
2018-07-06T12:16:45.949Z,10.00
2018-07-06T12:19:18.424Z,12.03
2018-07-06T12:21:51.058Z,13.00
2018-07-06T12:24:23.432Z,13.15
2018-07-06T12:26:55.821Z,18.20
2018-07-06T12:29:28.445Z,11.48
2018-07-06T12:32:00.869Z,7.62
2018-07-06T12:34:33.233Z,11.40
2018-07-06T12:37:05.661Z,11.40
2018-07-06T12:39:38.029Z,10.98
2018-07-06T12:42:10.422Z,21.52
2018-07-06T12:44:43.078Z,15.83
2018-07-06T12:47:15.510Z,11.10
2018-07-06T12:49:47.888Z,12.58
2018-07-06T12:52:20.305Z,12.75
2018-07-06T12:54:52.693Z,12.13
2018-07-06T12:57:25.101Z,10.05
2018-07-06T12:59:57.502Z,8.85
2018-07-06T13:02:30.149Z,11.95
2018-07-06T13:05:02.597Z,22.50
2018-07-06T13:07:35.023Z,18.15
2018-07-06T13:10:07.421Z,13.20
2018-07-06T13:12:40.117Z,12.68
2018-07-06T13:15:12.521Z,21.35
2018-07-06T13:17:44.953Z,11.00
2018-07-06T13:20:17.677Z,13.05
2018-07-06T13:22:50.078Z,15.03
2018-07-06T13:25:22.785Z,13.93
2018-07-06T13:27:55.298Z,18.02
2018-07-06T13:30:27.977Z,12.90
2018-07-06T13:33:00.401Z,8.85
2018-07-06T13:35:32.789Z,11.15
2018-07-06T13:38:05.604Z,7.83
2018-07-06T13:40:37.998Z,8.78
2018-07-06T13:43:10.389Z,12.03
2018-07-06T13:45:42.824Z,10.25
2018-07-06T13:48:15.181Z,9.88
2018-07-06T13:50:47.874Z,9.08
2018-07-06T13:53:20.257Z,15.20
2018-07-06T13:55:52.657Z,15.35
2018-07-06T13:58:25.048Z,9.93
2018-07-06T14:00:57.769Z,12.30
2018-07-06T14:03:30.458Z,10.28
2018-07-06T14:06:02.834Z,9.25
2018-07-06T14:08:35.219Z,9.48
2018-07-06T14:11:07.589Z,14.43
2018-07-06T14:13:39.990Z,9.75
2018-07-06T14:16:12.371Z,10.55
2018-07-06T14:18:45.014Z,11.70
2018-07-06T14:21:17.621Z,8.93
2018-07-06T14:23:50.285Z,7.22
2018-07-06T14:26:22.657Z,16.35
2018-07-06T14:28:55.289Z,6.17
2018-07-06T14:31:27.969Z,5.87
2018-07-06T14:34:00.365Z,10.30
2018-07-06T14:36:32.732Z,8.90
2018-07-06T14:39:06.485Z,7.33
2018-07-06T14:41:38.890Z,14.50
2018-07-06T14:44:11.271Z,6.97
2018-07-06T14:46:43.701Z,8.85
2018-07-06T14:49:16.132Z,7.75
2018-07-06T14:51:48.543Z,13.45
2018-07-06T14:54:20.933Z,9.93
2018-07-06T14:56:53.366Z,10.88
2018-07-06T14:59:26.049Z,13.10
2018-07-06T15:01:58.448Z,9.25
2018-07-06T15:04:31.153Z,8.30
2018-07-06T15:07:03.618Z,9.00
2018-07-06T15:09:36.217Z,10.83
2018-07-06T15:12:08.632Z,12.13
2018-07-06T15:14:41.014Z,9.80
2018-07-06T15:17:13.732Z,9.23
2018-07-06T15:19:46.449Z,8.30
2018-07-06T15:22:19.089Z,10.97
2018-07-06T15:24:51.550Z,6.60
2018-07-06T15:27:24.137Z,10.58
2018-07-06T15:29:56.529Z,8.35
2018-07-06T15:32:28.938Z,10.13
2018-07-06T15:35:01.335Z,7.25
2018-07-06T15:37:33.729Z,6.53
2018-07-06T15:40:06.142Z,7.85
2018-07-06T15:42:38.777Z,6.97
2018-07-06T15:45:11.454Z,7.70
2018-07-06T15:47:43.859Z,9.13
2018-07-06T15:50:16.249Z,12.33
2018-07-06T15:52:48.633Z,7.03
2018-07-06T15:55:21.341Z,8.75
2018-07-06T15:57:53.727Z,6.60
2018-07-06T16:00:26.329Z,11.43
2018-07-06T16:02:58.977Z,9.55
2018-07-06T16:05:31.353Z,7.90
2018-07-06T16:08:03.790Z,9.80
2018-07-06T16:10:36.158Z,7.75
2018-07-06T16:13:08.577Z,10.10
2018-07-06T16:15:40.956Z,8.20
2018-07-06T16:18:14.105Z,10.65
2018-07-06T16:20:46.529Z,8.65
2018-07-06T16:23:18.877Z,7.37
2018-07-06T16:25:51.569Z,7.72
2018-07-06T16:28:23.945Z,6.97
2018-07-06T16:30:56.309Z,8.63
2018-07-06T16:33:28.949Z,5.87
2018-07-06T16:36:01.317Z,9.45
2018-07-06T16:38:33.993Z,7.97
2018-07-06T16:41:07.277Z,7.17
2018-07-06T16:43:39.674Z,9.00
2018-07-06T16:46:11.909Z,8.33
2018-07-06T16:48:44.326Z,10.72
2018-07-06T16:51:16.692Z,8.23
2018-07-06T16:53:49.073Z,6.92
2018-07-06T16:56:21.457Z,9.75
2018-07-06T16:58:54.067Z,7.03
2018-07-06T17:01:26.446Z,14.28
2018-07-06T17:03:59.141Z,6.05
2018-07-06T17:06:31.546Z,5.22
2018-07-06T17:09:04.692Z,7.03
2018-07-06T17:11:37.068Z,9.05
2018-07-06T17:14:09.748Z,9.63
2018-07-06T17:16:42.669Z,10.18
2018-07-06T17:19:15.697Z,5.55
2018-07-06T17:21:48.039Z,6.93
2018-07-06T17:24:20.706Z,6.08
2018-07-06T17:26:53.296Z,6.87
2018-07-06T17:29:25.685Z,6.95
2018-07-06T17:31:58.333Z,6.72
2018-07-06T17:34:30.733Z,8.48
2018-07-06T17:37:03.180Z,5.25
2018-07-06T17:39:35.809Z,7.25
2018-07-06T17:42:08.181Z,4.85
2018-07-06T17:44:40.806Z,9.40
2018-07-06T17:47:13.188Z,8.30
2018-07-06T17:49:45.929Z,8.95
2018-07-06T17:52:18.313Z,7.83
2018-07-06T17:54:50.704Z,8.43
2018-07-06T17:57:23.078Z,8.45
2018-07-06T17:59:55.681Z,7.67
2018-07-06T18:02:28.333Z,6.37
2018-07-06T18:05:00.953Z,11.37
2018-07-06T18:07:33.653Z,6.10
2018-07-06T18:10:06.041Z,7.45
2018-07-06T18:12:38.439Z,7.97
2018-07-06T18:15:10.840Z,5.30
2018-07-06T18:17:43.217Z,6.42
2018-07-06T18:20:15.646Z,8.35
2018-07-06T18:22:48.709Z,6.70
2018-07-06T18:25:21.157Z,5.87
2018-07-06T18:27:53.530Z,4.37
2018-07-06T18:30:26.252Z,4.60
2018-07-06T18:32:58.632Z,7.40
2018-07-06T18:35:31.049Z,10.13
2018-07-06T18:38:03.479Z,7.92
2018-07-06T18:40:36.157Z,8.08
2018-07-06T18:43:08.522Z,6.17
2018-07-06T18:45:40.751Z,4.92
2018-07-06T18:48:13.126Z,6.43
2018-07-06T18:50:45.789Z,4.20
2018-07-06T18:53:18.160Z,5.37
2018-07-06T18:55:50.557Z,5.83
2018-07-06T18:58:22.925Z,5.58
2018-07-06T19:00:55.845Z,4.63
2018-07-06T19:03:28.225Z,5.37
2018-07-06T19:06:00.898Z,6.03
2018-07-06T19:08:33.309Z,6.55
2018-07-06T19:11:05.763Z,5.90
2018-07-06T19:13:38.426Z,6.45
2018-07-06T19:16:10.819Z,5.83
2018-07-06T19:18:43.221Z,4.73
2018-07-06T19:21:15.601Z,5.50
2018-07-06T19:23:48.317Z,8.13
2018-07-06T19:26:20.702Z,6.30
2018-07-06T19:28:53.077Z,9.33
2018-07-06T19:31:25.741Z,9.47
2018-07-06T19:33:58.110Z,6.83
2018-07-06T19:36:30.545Z,9.47
